Time;durP1;ratioP1;P1;durP2;ratioP2;P2;SDS_P1;SDS_P2;PMS_P1;PMS_P2;Temp;Humidity;BMP_temperature;BMP_pressure;BME280_temperature;BME280_humidity;BME280_pressure;Samples;Min_cycle;Max_cycle;Signal;HPM_P1;HPM_P2
2023/08/15 00:03:22;;;;;;;0.30;0.30;;;;;;;;;;10398877;28;20235;-78
2023/08/15 00:08:23;;;;;;;0.25;0.25;;;;;;;;;;10396194;28;20715;-78
2023/08/15 00:13:24;;;;;;;0.40;0.40;;;;;;;;;;10396693;28;20260;-78
2023/08/15 00:18:25;;;;;;;0.30;0.30;;;;;;;;;;10401697;28;20600;-77
2023/08/15 00:23:26;;;;;;;0.20;0.20;;;;;;;;;;10401763;28;20218;-76
2023/08/15 00:28:27;;;;;;;0.68;0.30;;;;;;;;;;10403360;28;20230;-81
2023/08/15 00:33:28;;;;;;;0.30;0.30;;;;;;;;;;10407754;28;20631;-76
2023/08/15 00:38:29;;;;;;;0.30;0.22;;;;;;;;;;10404565;28;20227;-76
2023/08/15 00:43:30;;;;;;;0.38;0.38;;;;;;;;;;10401947;28;20233;-77
2023/08/15 00:48:32;;;;;;;0.30;0.30;;;;;;;;;;10405727;28;20217;-79
2023/08/15 00:53:34;;;;;;;0.30;0.30;;;;;;;;;;10407170;28;20325;-78
2023/08/15 00:58:37;;;;;;;0.43;0.30;;;;;;;;;;10410400;28;20760;-77
2023/08/15 01:03:38;;;;;;;0.63;0.30;;;;;;;;;;10406157;28;20210;-77
2023/08/15 01:08:40;;;;;;;0.40;0.40;;;;;;;;;;10407761;28;20211;-76
2023/08/15 01:13:46;;;;;;;0.47;0.30;;;;;;;;;;10405023;28;20241;-77
2023/08/15 01:18:53;;;;;;;0.30;0.30;;;;;;;;;;10389170;28;20218;-79
2023/08/15 01:23:56;;;;;;;0.30;0.30;;;;;;;;;;10400314;28;20751;-79
2023/08/15 01:28:57;;;;;;;0.20;0.20;;;;;;;;;;10387882;28;20684;-80
2023/08/15 01:34:14;;;;;;;0.70;0.40;;;;;;;;;;10402130;28;20226;-78
2023/08/15 01:39:18;;;;;;;1.05;0.60;;;;;;;;;;10401449;28;20309;-79
2023/08/15 01:44:20;;;;;;;0.50;0.50;;;;;;;;;;10413638;28;20337;-77
2023/08/15 01:49:22;;;;;;;0.45;0.45;;;;;;;;;;10414770;28;20207;-78
2023/08/15 01:54:23;;;;;;;1.20;0.30;;;;;;;;;;10411376;28;20215;-76
2023/08/15 01:59:24;;;;;;;0.40;0.40;;;;;;;;;;10385489;28;20218;-79
2023/08/15 02:04:25;;;;;;;0.63;0.63;;;;;;;;;;10415273;28;20218;-79
2023/08/15 02:09:26;;;;;;;0.57;0.52;;;;;;;;;;10408524;28;20211;-79
2023/08/15 02:14:27;;;;;;;0.40;0.40;;;;;;;;;;10410666;28;20333;-77
2023/08/15 02:19:28;;;;;;;0.40;0.40;;;;;;;;;;10390902;28;20632;-78
2023/08/15 02:24:30;;;;;;;1.65;0.50;;;;;;;;;;10412950;28;20220;-78
2023/08/15 02:29:31;;;;;;;0.70;0.70;;;;;;;;;;10413514;28;20219;-77
2023/08/15 02:34:32;;;;;;;0.60;0.60;;;;;;;;;;10412337;28;20272;-79
2023/08/15 02:39:33;;;;;;;1.75;0.70;;;;;;;;;;10410801;28;20218;-79
2023/08/15 02:44:34;;;;;;;0.73;0.55;;;;;;;;;;10409486;28;20297;-77
2023/08/15 02:49:35;;;;;;;1.30;0.73;;;;;;;;;;10413869;28;20250;-77
2023/08/15 02:54:36;;;;;;;0.50;0.50;;;;;;;;;;10403395;28;20318;-76
2023/08/15 02:59:38;;;;;;;1.65;0.60;;;;;;;;;;10411491;28;20214;-78
2023/08/15 03:04:39;;;;;;;0.50;0.50;;;;;;;;;;10404568;28;20218;-77
2023/08/15 03:09:40;;;;;;;0.60;0.60;;;;;;;;;;10407002;28;20585;-76
2023/08/15 03:14:41;;;;;;;0.93;0.93;;;;;;;;;;10412279;28;20234;-79
2023/08/15 03:19:42;;;;;;;0.80;0.80;;;;;;;;;;10401227;28;20593;-77
2023/08/15 03:24:43;;;;;;;1.60;0.95;;;;;;;;;;10396828;28;20218;-79
2023/08/15 03:29:45;;;;;;;5.97;1.10;;;;;;;;;;10410678;28;20211;-77
2023/08/15 03:34:46;;;;;;;1.08;1.08;;;;;;;;;;10407552;28;20219;-78
2023/08/15 03:39:47;;;;;;;1.38;1.25;;;;;;;;;;10404605;28;20210;-77
2023/08/15 03:44:49;;;;;;;0.90;0.90;;;;;;;;;;10408392;28;20238;-77
2023/08/15 03:49:50;;;;;;;0.90;0.90;;;;;;;;;;10411894;28;20203;-81
2023/08/15 03:54:52;;;;;;;1.38;1.23;;;;;;;;;;10396190;28;20803;-79
2023/08/15 03:59:53;;;;;;;3.58;1.52;;;;;;;;;;10411127;28;20297;-79
2023/08/15 04:04:54;;;;;;;0.80;0.80;;;;;;;;;;10397535;28;20222;-77
2023/08/15 04:09:55;;;;;;;1.35;1.25;;;;;;;;;;10406322;28;20298;-76
2023/08/15 04:14:56;;;;;;;1.05;1.05;;;;;;;;;;10408980;28;20314;-78
2023/08/15 04:19:58;;;;;;;1.10;0.98;;;;;;;;;;10405027;28;20240;-77
2023/08/15 04:24:59;;;;;;;0.90;0.90;;;;;;;;;;10404906;28;20247;-77
2023/08/15 04:30:00;;;;;;;0.95;0.95;;;;;;;;;;10405914;28;20217;-77
2023/08/15 04:35:02;;;;;;;4.45;1.38;;;;;;;;;;10401172;28;20308;-76
2023/08/15 04:40:03;;;;;;;0.70;0.70;;;;;;;;;;10398573;28;20679;-79
2023/08/15 04:45:05;;;;;;;2.47;1.23;;;;;;;;;;10385825;28;20265;-80
2023/08/15 04:50:08;;;;;;;1.60;1.30;;;;;;;;;;10406667;28;20184;-77
2023/08/15 04:55:13;;;;;;;3.53;1.23;;;;;;;;;;10405714;28;20289;-77
2023/08/15 05:00:18;;;;;;;1.80;1.80;;;;;;;;;;10391222;28;20191;-78
2023/08/15 05:05:20;;;;;;;1.05;1.05;;;;;;;;;;10403891;28;20207;-77
2023/08/15 05:10:21;;;;;;;2.22;1.23;;;;;;;;;;10402038;28;20214;-77
2023/08/15 05:15:23;;;;;;;1.52;1.52;;;;;;;;;;10405251;28;20269;-76
2023/08/15 05:20:24;;;;;;;0.93;0.93;;;;;;;;;;10383858;28;20277;-79
2023/08/15 05:25:25;;;;;;;0.65;0.65;;;;;;;;;;10424974;28;20219;-77
2023/08/15 05:30:27;;;;;;;0.85;0.85;;;;;;;;;;10397696;28;20305;-78
2023/08/15 05:35:29;;;;;;;0.82;0.82;;;;;;;;;;10409862;28;20218;-79
2023/08/15 05:40:30;;;;;;;0.90;0.90;;;;;;;;;;10402940;28;20219;-77
2023/08/15 05:45:32;;;;;;;1.40;1.30;;;;;;;;;;10414803;28;20325;-77
2023/08/15 05:50:33;;;;;;;5.55;1.48;;;;;;;;;;10420501;28;20226;-77
2023/08/15 05:55:34;;;;;;;1.98;1.00;;;;;;;;;;10415795;28;20307;-76
2023/08/15 06:00:37;;;;;;;1.40;1.02;;;;;;;;;;10410521;28;20219;-77
2023/08/15 06:05:38;;;;;;;1.42;0.93;;;;;;;;;;10418411;28;20223;-76
2023/08/15 06:10:39;;;;;;;0.90;0.90;;;;;;;;;;10415633;28;20799;-75
2023/08/15 06:15:40;;;;;;;0.82;0.82;;;;;;;;;;10412904;28;20288;-76
2023/08/15 06:20:41;;;;;;;0.60;0.60;;;;;;;;;;10412075;28;20226;-78
2023/08/15 06:25:43;;;;;;;1.23;1.10;;;;;;;;;;10414989;28;21220;-76
2023/08/15 06:30:44;;;;;;;2.58;0.93;;;;;;;;;;10405846;28;20847;-78
2023/08/15 06:35:45;;;;;;;0.93;0.93;;;;;;;;;;10409805;28;20283;-76
2023/08/15 06:40:46;;;;;;;0.52;0.52;;;;;;;;;;10405227;28;21084;-76
2023/08/15 06:45:47;;;;;;;0.45;0.45;;;;;;;;;;10410360;28;20227;-78
2023/08/15 06:50:48;;;;;;;2.25;0.90;;;;;;;;;;10407160;28;20213;-78
2023/08/15 06:55:50;;;;;;;1.08;1.00;;;;;;;;;;10408152;28;20777;-81
2023/08/15 07:00:51;;;;;;;0.70;0.70;;;;;;;;;;10397865;28;20799;-78
2023/08/15 07:05:52;;;;;;;0.70;0.70;;;;;;;;;;10400236;28;20231;-76
2023/08/15 07:11:00;;;;;;;0.85;0.85;;;;;;;;;;10392268;28;20219;-77
2023/08/15 07:16:01;;;;;;;1.40;1.40;;;;;;;;;;10400777;28;20226;-77
2023/08/15 07:21:03;;;;;;;0.93;0.93;;;;;;;;;;10405515;28;20237;-79
2023/08/15 07:26:04;;;;;;;0.57;0.57;;;;;;;;;;10405125;28;20335;-81
2023/08/15 07:31:05;;;;;;;1.02;0.95;;;;;;;;;;10410335;28;20288;-80
2023/08/15 07:36:06;;;;;;;1.13;1.02;;;;;;;;;;10410073;28;20218;-79
2023/08/15 07:41:07;;;;;;;1.42;0.73;;;;;;;;;;10389155;28;20756;-79
2023/08/15 07:46:08;;;;;;;1.00;1.00;;;;;;;;;;10410025;28;20219;-77
2023/08/15 07:51:10;;;;;;;1.17;0.98;;;;;;;;;;10405186;28;20289;-81
2023/08/15 07:56:11;;;;;;;0.98;0.73;;;;;;;;;;10410098;28;20215;-80
2023/08/15 08:01:12;;;;;;;0.85;0.80;;;;;;;;;;10405942;28;20202;-79
2023/08/15 08:06:13;;;;;;;1.30;1.20;;;;;;;;;;10404659;28;20215;-83
2023/08/15 08:11:14;;;;;;;2.67;1.15;;;;;;;;;;10391019;28;20589;-79
2023/08/15 08:16:17;;;;;;;2.05;1.58;;;;;;;;;;10404204;28;20544;-79
2023/08/15 08:21:18;;;;;;;2.05;0.82;;;;;;;;;;10407332;28;21148;-78
2023/08/15 08:26:19;;;;;;;2.15;0.82;;;;;;;;;;10411426;28;20210;-78
2023/08/15 08:31:20;;;;;;;1.75;1.00;;;;;;;;;;10405390;28;20218;-78
2023/08/15 08:36:21;;;;;;;1.38;1.38;;;;;;;;;;10409923;28;20598;-78
2023/08/15 08:41:22;;;;;;;1.83;1.27;;;;;;;;;;10403003;28;20225;-78
2023/08/15 08:46:24;;;;;;;1.08;0.98;;;;;;;;;;10413966;28;20212;-77
2023/08/15 08:51:25;;;;;;;0.93;0.93;;;;;;;;;;10399496;28;20250;-77
2023/08/15 08:56:28;;;;;;;1.35;1.20;;;;;;;;;;10390707;28;20688;-79
2023/08/15 09:01:31;;;;;;;0.98;0.98;;;;;;;;;;10399260;28;20264;-77
2023/08/15 09:06:32;;;;;;;1.85;1.10;;;;;;;;;;10407672;28;20296;-78
2023/08/15 09:11:38;;;;;;;1.83;1.70;;;;;;;;;;10405509;28;20214;-76
2023/08/15 09:16:47;;;;;;;1.63;1.52;;;;;;;;;;10405242;28;20219;-76
2023/08/15 09:21:48;;;;;;;1.95;1.33;;;;;;;;;;10395428;28;21431;-79
2023/08/15 09:26:49;;;;;;;1.85;1.00;;;;;;;;;;10404213;28;20557;-76
2023/08/15 09:31:50;;;;;;;3.42;1.80;;;;;;;;;;10399209;28;20225;-78
2023/08/15 09:36:51;;;;;;;1.67;1.58;;;;;;;;;;10387782;28;20218;-77
2023/08/15 09:41:53;;;;;;;1.23;1.15;;;;;;;;;;10408024;28;20592;-78
2023/08/15 09:46:54;;;;;;;1.50;1.40;;;;;;;;;;10400133;28;20212;-76
2023/08/15 09:52:00;;;;;;;1.25;1.20;;;;;;;;;;10408953;28;20350;-78
2023/08/15 09:57:01;;;;;;;1.23;1.17;;;;;;;;;;10393846;28;20874;-77
2023/08/15 10:02:03;;;;;;;2.03;1.30;;;;;;;;;;10408231;28;20214;-79
2023/08/15 10:07:05;;;;;;;1.08;1.08;;;;;;;;;;10410279;28;21839;-77
2023/08/15 10:12:07;;;;;;;1.30;1.30;;;;;;;;;;10412954;28;20226;-79
2023/08/15 10:17:08;;;;;;;1.55;1.45;;;;;;;;;;10410804;28;20224;-78
2023/08/15 10:22:09;;;;;;;1.15;1.15;;;;;;;;;;10411204;28;20227;-79
2023/08/15 10:27:11;;;;;;;1.10;1.10;;;;;;;;;;10414570;28;20248;-78
2023/08/15 10:32:23;;;;;;;2.72;1.60;;;;;;;;;;10405624;28;20320;-77
2023/08/15 10:37:28;;;;;;;1.00;1.00;;;;;;;;;;10416222;28;20215;-79
2023/08/15 10:42:29;;;;;;;1.50;1.38;;;;;;;;;;10425102;28;20727;-80
2023/08/15 10:47:41;;;;;;;0.80;0.80;;;;;;;;;;10415853;28;20216;-80
2023/08/15 10:52:42;;;;;;;0.90;0.90;;;;;;;;;;10395185;28;20330;-80
2023/08/15 10:57:44;;;;;;;0.90;0.90;;;;;;;;;;10412334;28;20214;-79
2023/08/15 11:02:45;;;;;;;1.65;0.63;;;;;;;;;;10415289;28;20225;-80
2023/08/15 11:07:47;;;;;;;2.10;1.02;;;;;;;;;;10394467;28;20210;-81
2023/08/15 11:12:48;;;;;;;1.00;0.90;;;;;;;;;;10383789;28;20300;-80
2023/08/15 11:17:49;;;;;;;1.13;1.02;;;;;;;;;;10388362;28;20214;-82
2023/08/15 11:22:56;;;;;;;1.02;1.02;;;;;;;;;;10401360;28;20211;-81
2023/08/15 11:27:58;;;;;;;0.85;0.85;;;;;;;;;;10426778;28;20210;-78
2023/08/15 11:32:59;;;;;;;1.02;0.93;;;;;;;;;;10402522;28;20235;-80
2023/08/15 11:38:00;;;;;;;1.38;1.05;;;;;;;;;;10412460;28;20235;-79
2023/08/15 11:43:01;;;;;;;0.70;0.70;;;;;;;;;;10424611;28;20222;-81
2023/08/15 11:48:03;;;;;;;2.28;0.63;;;;;;;;;;10427558;28;20620;-79
2023/08/15 11:53:17;;;;;;;0.88;0.50;;;;;;;;;;10411316;28;20310;-81
2023/08/15 11:58:24;;;;;;;0.82;0.52;;;;;;;;;;10417580;28;20215;-80
2023/08/15 12:03:26;;;;;;;0.60;0.60;;;;;;;;;;10398978;28;20242;-80
2023/08/15 12:08:28;;;;;;;1.00;0.70;;;;;;;;;;10396533;28;20217;-78
2023/08/15 12:13:39;;;;;;;1.65;0.60;;;;;;;;;;10415322;28;20318;-79
2023/08/15 12:18:40;;;;;;;0.50;0.50;;;;;;;;;;10400185;28;20233;-80
2023/08/15 12:23:41;;;;;;;1.75;0.60;;;;;;;;;;10410179;28;20218;-81
2023/08/15 12:28:42;;;;;;;0.20;0.20;;;;;;;;;;10396943;28;20217;-79
2023/08/15 12:33:43;;;;;;;0.30;0.30;;;;;;;;;;10414219;28;20210;-79
2023/08/15 12:38:44;;;;;;;0.40;0.40;;;;;;;;;;10392909;28;20260;-79
2023/08/15 12:43:45;;;;;;;0.40;0.40;;;;;;;;;;10396804;28;20268;-80
2023/08/15 12:48:46;;;;;;;0.30;0.30;;;;;;;;;;10420155;28;20213;-82
2023/08/15 12:53:47;;;;;;;0.20;0.20;;;;;;;;;;10416719;28;20222;-82
2023/08/15 12:58:48;;;;;;;0.68;0.30;;;;;;;;;;10414587;28;20202;-80
2023/08/15 13:03:51;;;;;;;0.45;0.30;;;;;;;;;;10398433;28;20214;-81
2023/08/15 13:08:52;;;;;;;0.30;0.30;;;;;;;;;;10396509;28;20759;-80
2023/08/15 13:13:53;;;;;;;1.00;0.30;;;;;;;;;;10398978;28;20237;-80
2023/08/15 13:18:54;;;;;;;1.67;0.35;;;;;;;;;;10406055;28;20237;-82
2023/08/15 13:23:55;;;;;;;0.20;0.20;;;;;;;;;;10416409;28;20782;-82
2023/08/15 13:28:57;;;;;;;0.82;0.30;;;;;;;;;;10422941;28;20210;-80
2023/08/15 13:33:59;;;;;;;0.20;0.20;;;;;;;;;;10406055;28;20283;-79
2023/08/15 13:39:00;;;;;;;0.28;0.28;;;;;;;;;;10404627;28;20222;-78
2023/08/15 13:44:01;;;;;;;0.20;0.20;;;;;;;;;;10401948;28;20226;-79
2023/08/15 13:49:02;;;;;;;0.20;0.20;;;;;;;;;;10414491;28;20290;-82
2023/08/15 13:54:05;;;;;;;0.20;0.20;;;;;;;;;;10408117;28;20288;-81
2023/08/15 13:59:06;;;;;;;0.20;0.20;;;;;;;;;;10404571;28;20229;-83
2023/08/15 14:04:07;;;;;;;0.10;0.10;;;;;;;;;;10421263;28;20852;-80
2023/08/15 14:09:08;;;;;;;0.17;0.17;;;;;;;;;;10393245;28;20214;-82
2023/08/15 14:14:09;;;;;;;0.17;0.17;;;;;;;;;;10416306;28;20606;-80
2023/08/15 14:19:11;;;;;;;0.10;0.10;;;;;;;;;;10385709;28;20221;-82
2023/08/15 14:24:12;;;;;;;0.20;0.15;;;;;;;;;;10405596;28;20253;-79
2023/08/15 14:29:13;;;;;;;0.13;0.13;;;;;;;;;;10411764;28;20333;-81
2023/08/15 14:34:14;;;;;;;0.20;0.20;;;;;;;;;;10420794;28;20226;-79
2023/08/15 14:39:15;;;;;;;0.20;0.20;;;;;;;;;;10422005;28;20306;-80
2023/08/15 14:44:16;;;;;;;0.20;0.20;;;;;;;;;;10425738;28;20242;-79
2023/08/15 14:49:17;;;;;;;0.20;0.20;;;;;;;;;;10404684;28;20297;-80
2023/08/15 14:54:18;;;;;;;0.30;0.20;;;;;;;;;;10420588;28;20223;-81
2023/08/15 14:59:19;;;;;;;0.20;0.20;;;;;;;;;;10428687;28;20300;-79
2023/08/15 15:04:20;;;;;;;0.85;0.30;;;;;;;;;;10422138;28;20250;-76
2023/08/15 15:09:22;;;;;;;0.20;0.20;;;;;;;;;;10424043;28;20215;-76
2023/08/15 15:14:23;;;;;;;0.30;0.30;;;;;;;;;;10414249;28;20284;-77
2023/08/15 15:19:24;;;;;;;0.20;0.20;;;;;;;;;;10415401;28;20208;-79
2023/08/15 15:24:25;;;;;;;3.72;0.52;;;;;;;;;;10412515;28;20219;-77
2023/08/15 15:29:26;;;;;;;0.35;0.35;;;;;;;;;;10401638;28;20206;-78
2023/08/15 15:34:27;;;;;;;0.28;0.28;;;;;;;;;;10391322;28;20227;-79
2023/08/15 15:39:30;;;;;;;0.40;0.30;;;;;;;;;;10395538;28;20336;-80
2023/08/15 15:44:34;;;;;;;0.30;0.30;;;;;;;;;;10415658;28;20620;-79
2023/08/15 15:49:35;;;;;;;0.75;0.45;;;;;;;;;;10414008;28;20219;-78
2023/08/15 15:54:36;;;;;;;0.82;0.50;;;;;;;;;;10394746;28;20349;-77
2023/08/15 15:59:37;;;;;;;0.30;0.30;;;;;;;;;;10411137;28;20221;-78
2023/08/15 16:04:38;;;;;;;2.05;0.30;;;;;;;;;;10413908;28;20238;-77
2023/08/15 16:09:39;;;;;;;0.35;0.30;;;;;;;;;;10397558;28;20211;-77
2023/08/15 16:14:40;;;;;;;0.40;0.40;;;;;;;;;;10391866;28;20231;-76
2023/08/15 16:19:41;;;;;;;0.85;0.40;;;;;;;;;;10393864;28;20215;-80
2023/08/15 16:24:42;;;;;;;0.30;0.30;;;;;;;;;;10386639;28;20585;-76
2023/08/15 16:29:43;;;;;;;0.32;0.32;;;;;;;;;;10390343;28;20206;-78
2023/08/15 16:34:44;;;;;;;0.40;0.40;;;;;;;;;;10401575;28;20292;-76
2023/08/15 16:39:46;;;;;;;0.38;0.32;;;;;;;;;;10410668;28;20834;-76
2023/08/15 16:44:47;;;;;;;0.40;0.40;;;;;;;;;;10402047;28;20682;-77
2023/08/15 16:49:48;;;;;;;1.13;0.40;;;;;;;;;;10387484;28;20768;-77
2023/08/15 16:54:49;;;;;;;0.40;0.40;;;;;;;;;;10393678;28;20217;-77
2023/08/15 16:59:50;;;;;;;0.60;0.60;;;;;;;;;;10407271;28;20221;-78
2023/08/15 17:04:51;;;;;;;0.57;0.57;;;;;;;;;;10402970;28;20225;-78
2023/08/15 17:09:52;;;;;;;0.60;0.60;;;;;;;;;;10409832;28;20269;-76
2023/08/15 17:14:54;;;;;;;0.40;0.40;;;;;;;;;;10416291;28;20264;-79
2023/08/15 17:19:56;;;;;;;0.80;0.80;;;;;;;;;;10412801;28;20219;-79
2023/08/15 17:24:57;;;;;;;1.27;1.02;;;;;;;;;;10422398;28;20226;-77
2023/08/15 17:29:58;;;;;;;0.80;0.80;;;;;;;;;;10404984;28;20237;-76
2023/08/15 17:35:00;;;;;;;0.93;0.75;;;;;;;;;;10419016;28;20225;-79
2023/08/15 17:40:01;;;;;;;1.45;0.80;;;;;;;;;;10400540;28;20345;-79
2023/08/15 17:45:03;;;;;;;0.70;0.70;;;;;;;;;;10418388;28;20227;-76
2023/08/15 17:50:05;;;;;;;0.68;0.68;;;;;;;;;;10420067;28;20540;-76
2023/08/15 17:55:07;;;;;;;1.30;1.00;;;;;;;;;;10422293;28;20712;-77
2023/08/15 18:00:09;;;;;;;0.93;0.70;;;;;;;;;;10420296;28;20184;-75
2023/08/15 18:05:12;;;;;;;0.40;0.40;;;;;;;;;;10408370;28;20276;-76
2023/08/15 18:10:13;;;;;;;0.93;0.93;;;;;;;;;;10408682;28;20559;-80
2023/08/15 18:15:14;;;;;;;1.05;0.73;;;;;;;;;;10402527;28;20227;-80
2023/08/15 18:20:15;;;;;;;1.20;1.00;;;;;;;;;;10414274;28;20191;-75
2023/08/15 18:25:16;;;;;;;0.82;0.82;;;;;;;;;;10428103;28;20363;-77
2023/08/15 18:30:17;;;;;;;0.70;0.70;;;;;;;;;;10396874;28;20183;-79
2023/08/15 18:35:18;;;;;;;0.73;0.73;;;;;;;;;;10391607;28;20761;-78
2023/08/15 18:40:19;;;;;;;0.70;0.70;;;;;;;;;;10407925;28;20190;-76
2023/08/15 18:45:20;;;;;;;0.98;0.88;;;;;;;;;;10427862;28;21072;-75
2023/08/15 18:50:22;;;;;;;1.15;0.82;;;;;;;;;;10432496;28;20179;-77
2023/08/15 18:55:23;;;;;;;0.60;0.60;;;;;;;;;;10422994;28;20215;-82
2023/08/15 19:00:24;;;;;;;0.77;0.75;;;;;;;;;;10402608;28;20182;-78
2023/08/15 19:05:25;;;;;;;0.85;0.60;;;;;;;;;;10421350;28;20223;-78
2023/08/15 19:10:26;;;;;;;0.70;0.70;;;;;;;;;;10397031;28;20253;-79
2023/08/15 19:15:27;;;;;;;10.23;7.53;;;;;;;;;;10418808;28;20674;-80
2023/08/15 19:20:29;;;;;;;0.85;0.85;;;;;;;;;;10426365;28;20215;-80
2023/08/15 19:25:30;;;;;;;0.80;0.80;;;;;;;;;;10394907;28;20911;-77
2023/08/15 19:30:31;;;;;;;0.70;0.70;;;;;;;;;;10395699;28;20219;-78
2023/08/15 19:35:32;;;;;;;0.70;0.70;;;;;;;;;;10408556;28;20223;-76
2023/08/15 19:40:33;;;;;;;1.10;0.63;;;;;;;;;;10401016;28;20759;-79
2023/08/15 19:45:34;;;;;;;0.60;0.60;;;;;;;;;;10413062;28;20225;-79
2023/08/15 19:50:35;;;;;;;1.75;1.10;;;;;;;;;;10414338;28;20230;-79
2023/08/15 19:55:36;;;;;;;0.80;0.60;;;;;;;;;;10400083;28;20289;-79
2023/08/15 20:00:37;;;;;;;1.55;0.50;;;;;;;;;;10411639;28;20214;-77
2023/08/15 20:05:39;;;;;;;0.47;0.47;;;;;;;;;;10413624;28;20896;-78
2023/08/15 20:10:40;;;;;;;0.77;0.50;;;;;;;;;;10403310;28;20225;-77
2023/08/15 20:15:41;;;;;;;0.57;0.47;;;;;;;;;;10393265;28;20358;-77
2023/08/15 20:20:42;;;;;;;0.68;0.68;;;;;;;;;;10399900;28;20929;-77
2023/08/15 20:25:44;;;;;;;1.67;0.60;;;;;;;;;;10417740;28;20593;-78
2023/08/15 20:30:45;;;;;;;0.88;0.65;;;;;;;;;;10398267;28;20298;-79
2023/08/15 20:35:46;;;;;;;2.53;0.50;;;;;;;;;;10412949;28;20218;-79
2023/08/15 20:40:47;;;;;;;1.98;0.60;;;;;;;;;;10415281;28;20653;-81
2023/08/15 20:45:51;;;;;;;0.75;0.40;;;;;;;;;;10413998;28;20218;-79
2023/08/15 20:50:52;;;;;;;0.50;0.50;;;;;;;;;;10405964;28;20214;-80
2023/08/15 20:55:53;;;;;;;0.40;0.40;;;;;;;;;;10412661;28;20235;-77
2023/08/15 21:00:54;;;;;;;0.45;0.45;;;;;;;;;;10417224;28;20294;-78
2023/08/15 21:05:55;;;;;;;1.02;0.60;;;;;;;;;;10402065;28;20850;-78
2023/08/15 21:10:56;;;;;;;0.30;0.30;;;;;;;;;;10415798;28;20313;-77
2023/08/15 21:15:57;;;;;;;0.60;0.60;;;;;;;;;;10350709;28;20258;-77
2023/08/15 21:20:59;;;;;;;0.90;0.43;;;;;;;;;;10340437;28;20215;-77
2023/08/15 21:26:00;;;;;;;0.60;0.60;;;;;;;;;;10344137;28;20314;-77
2023/08/15 21:31:01;;;;;;;1.40;0.40;;;;;;;;;;10336273;28;20229;-77
2023/08/15 21:36:02;;;;;;;0.28;0.28;;;;;;;;;;10341096;28;20220;-77
2023/08/15 21:41:03;;;;;;;0.40;0.32;;;;;;;;;;10321906;28;20299;-77
2023/08/15 21:46:04;;;;;;;0.38;0.38;;;;;;;;;;10350191;28;20686;-77
2023/08/15 21:51:05;;;;;;;0.50;0.50;;;;;;;;;;10355469;28;20705;-79
2023/08/15 21:56:07;;;;;;;0.20;0.20;;;;;;;;;;10332937;28;22087;-79
2023/08/15 22:01:08;;;;;;;0.20;0.20;;;;;;;;;;10342043;28;20224;-77
2023/08/15 22:06:10;;;;;;;0.40;0.40;;;;;;;;;;10346223;28;20215;-77
2023/08/15 22:11:11;;;;;;;0.30;0.30;;;;;;;;;;10338329;28;20216;-78
2023/08/15 22:16:12;;;;;;;0.47;0.40;;;;;;;;;;10415558;28;20235;-79
2023/08/15 22:21:13;;;;;;;4.43;0.80;;;;;;;;;;10421737;28;20222;-78
2023/08/15 22:26:14;;;;;;;0.40;0.40;;;;;;;;;;10416773;28;20219;-76
2023/08/15 22:31:16;;;;;;;4.95;0.60;;;;;;;;;;10422145;28;20222;-77
2023/08/15 22:36:17;;;;;;;0.63;0.38;;;;;;;;;;10411631;28;20211;-78
2023/08/15 22:41:18;;;;;;;0.63;0.50;;;;;;;;;;10411823;28;20234;-78
2023/08/15 22:46:19;;;;;;;0.50;0.50;;;;;;;;;;10415274;28;20222;-78
2023/08/15 22:51:20;;;;;;;0.43;0.35;;;;;;;;;;10423705;28;20264;-77
2023/08/15 22:56:21;;;;;;;0.30;0.30;;;;;;;;;;10395835;28;20214;-77
2023/08/15 23:01:22;;;;;;;1.38;0.40;;;;;;;;;;10410598;28;20206;-77
2023/08/15 23:06:23;;;;;;;0.50;0.50;;;;;;;;;;10418131;28;20227;-77
2023/08/15 23:11:26;;;;;;;0.50;0.50;;;;;;;;;;10416017;28;20215;-77
2023/08/15 23:16:27;;;;;;;0.68;0.68;;;;;;;;;;10404561;28;20237;-77
2023/08/15 23:21:29;;;;;;;0.70;0.70;;;;;;;;;;10421230;28;20598;-76
2023/08/15 23:26:30;;;;;;;1.45;0.43;;;;;;;;;;10414544;28;20226;-77
2023/08/15 23:31:32;;;;;;;0.80;0.57;;;;;;;;;;10419507;28;20284;-75
2023/08/15 23:36:33;;;;;;;2.35;0.52;;;;;;;;;;10416159;28;20237;-75
2023/08/15 23:41:34;;;;;;;0.32;0.32;;;;;;;;;;10395557;28;21008;-75
2023/08/15 23:46:35;;;;;;;0.40;0.40;;;;;;;;;;10388390;28;20227;-75
2023/08/15 23:51:36;;;;;;;1.15;0.50;;;;;;;;;;10408535;28;20215;-75
2023/08/15 23:56:37;;;;;;;2.35;0.52;;;;;;;;;;10395956;28;20281;-77
